sensor_id;sensor_type;location;lat;lon;timestamp;P1;durP1;ratioP1;P2;durP2;ratioP2
20695;SDS011;10507;52.754;13.040;2022-11-20T00:01:19;14.47;;;9.17;;
20695;SDS011;10507;52.754;13.040;2022-11-20T00:03:49;14.50;;;9.13;;
20695;SDS011;10507;52.754;13.040;2022-11-20T00:06:18;16.97;;;9.70;;
20695;SDS011;10507;52.754;13.040;2022-11-20T00:08:47;18.27;;;10.50;;
20695;SDS011;10507;52.754;13.040;2022-11-20T00:11:18;14.77;;;9.23;;
20695;SDS011;10507;52.754;13.040;2022-11-20T00:13:48;15.87;;;9.30;;
20695;SDS011;10507;52.754;13.040;2022-11-20T00:16:18;16.33;;;9.53;;
20695;SDS011;10507;52.754;13.040;2022-11-20T00:18:47;15.00;;;9.10;;
20695;SDS011;10507;52.754;13.040;2022-11-20T00:21:17;15.87;;;9.97;;
20695;SDS011;10507;52.754;13.040;2022-11-20T00:23:47;15.60;;;9.17;;
20695;SDS011;10507;52.754;13.040;2022-11-20T00:26:22;15.60;;;8.73;;
20695;SDS011;10507;52.754;13.040;2022-11-20T00:28:52;15.83;;;9.63;;
20695;SDS011;10507;52.754;13.040;2022-11-20T00:31:22;13.33;;;8.50;;
20695;SDS011;10507;52.754;13.040;2022-11-20T00:33:50;13.87;;;9.03;;
20695;SDS011;10507;52.754;13.040;2022-11-20T00:36:19;15.27;;;9.63;;
20695;SDS011;10507;52.754;13.040;2022-11-20T00:38:50;14.87;;;9.40;;
20695;SDS011;10507;52.754;13.040;2022-11-20T00:41:19;15.70;;;9.93;;
20695;SDS011;10507;52.754;13.040;2022-11-20T00:43:49;15.13;;;8.97;;
20695;SDS011;10507;52.754;13.040;2022-11-20T00:46:19;13.90;;;9.73;;
20695;SDS011;10507;52.754;13.040;2022-11-20T00:48:49;16.23;;;10.00;;
20695;SDS011;10507;52.754;13.040;2022-11-20T00:51:18;19.50;;;9.50;;
20695;SDS011;10507;52.754;13.040;2022-11-20T00:53:47;17.53;;;10.13;;
20695;SDS011;10507;52.754;13.040;2022-11-20T00:56:16;16.17;;;9.43;;
20695;SDS011;10507;52.754;13.040;2022-11-20T00:58:45;17.63;;;10.13;;
20695;SDS011;10507;52.754;13.040;2022-11-20T01:01:16;17.57;;;9.87;;
20695;SDS011;10507;52.754;13.040;2022-11-20T01:03:46;15.97;;;9.40;;
20695;SDS011;10507;52.754;13.040;2022-11-20T01:06:16;17.60;;;9.17;;
20695;SDS011;10507;52.754;13.040;2022-11-20T01:08:55;15.03;;;9.33;;
20695;SDS011;10507;52.754;13.040;2022-11-20T01:11:25;17.13;;;10.20;;
20695;SDS011;10507;52.754;13.040;2022-11-20T01:13:54;16.47;;;9.47;;
20695;SDS011;10507;52.754;13.040;2022-11-20T01:16:25;17.40;;;9.80;;
20695;SDS011;10507;52.754;13.040;2022-11-20T01:18:55;16.13;;;9.63;;
20695;SDS011;10507;52.754;13.040;2022-11-20T01:21:25;13.60;;;8.60;;
20695;SDS011;10507;52.754;13.040;2022-11-20T01:23:54;17.27;;;10.17;;
20695;SDS011;10507;52.754;13.040;2022-11-20T01:26:23;16.47;;;9.50;;
20695;SDS011;10507;52.754;13.040;2022-11-20T01:28:52;16.30;;;9.90;;
20695;SDS011;10507;52.754;13.040;2022-11-20T01:31:21;15.43;;;9.13;;
20695;SDS011;10507;52.754;13.040;2022-11-20T01:33:53;16.27;;;9.60;;
20695;SDS011;10507;52.754;13.040;2022-11-20T01:36:31;14.47;;;8.87;;
20695;SDS011;10507;52.754;13.040;2022-11-20T01:39:01;16.63;;;9.53;;
20695;SDS011;10507;52.754;13.040;2022-11-20T01:41:33;17.20;;;9.60;;
20695;SDS011;10507;52.754;13.040;2022-11-20T01:44:19;16.20;;;10.40;;
20695;SDS011;10507;52.754;13.040;2022-11-20T01:46:52;15.17;;;9.07;;
20695;SDS011;10507;52.754;13.040;2022-11-20T01:49:27;16.30;;;9.47;;
20695;SDS011;10507;52.754;13.040;2022-11-20T01:52:03;17.50;;;10.53;;
20695;SDS011;10507;52.754;13.040;2022-11-20T01:54:35;15.97;;;10.43;;
20695;SDS011;10507;52.754;13.040;2022-11-20T01:57:08;16.30;;;9.93;;
20695;SDS011;10507;52.754;13.040;2022-11-20T01:59:40;17.03;;;10.13;;
20695;SDS011;10507;52.754;13.040;2022-11-20T02:02:12;15.80;;;9.23;;
20695;SDS011;10507;52.754;13.040;2022-11-20T02:04:41;15.23;;;9.30;;
20695;SDS011;10507;52.754;13.040;2022-11-20T02:07:09;16.63;;;9.23;;
20695;SDS011;10507;52.754;13.040;2022-11-20T02:09:38;16.43;;;9.17;;
20695;SDS011;10507;52.754;13.040;2022-11-20T02:12:06;16.77;;;9.80;;
20695;SDS011;10507;52.754;13.040;2022-11-20T02:14:58;15.37;;;9.53;;
20695;SDS011;10507;52.754;13.040;2022-11-20T02:17:24;15.20;;;9.77;;
20695;SDS011;10507;52.754;13.040;2022-11-20T02:19:54;16.90;;;9.70;;
20695;SDS011;10507;52.754;13.040;2022-11-20T02:22:23;16.90;;;9.63;;
20695;SDS011;10507;52.754;13.040;2022-11-20T02:24:57;12.80;;;8.77;;
20695;SDS011;10507;52.754;13.040;2022-11-20T02:27:28;18.07;;;9.07;;
20695;SDS011;10507;52.754;13.040;2022-11-20T02:29:57;15.93;;;9.97;;
20695;SDS011;10507;52.754;13.040;2022-11-20T02:32:29;15.60;;;9.87;;
20695;SDS011;10507;52.754;13.040;2022-11-20T02:35:05;16.23;;;10.33;;
20695;SDS011;10507;52.754;13.040;2022-11-20T02:37:34;16.63;;;9.67;;
20695;SDS011;10507;52.754;13.040;2022-11-20T02:40:08;17.63;;;9.77;;
20695;SDS011;10507;52.754;13.040;2022-11-20T02:42:37;17.97;;;10.57;;
20695;SDS011;10507;52.754;13.040;2022-11-20T02:45:06;15.80;;;9.90;;
20695;SDS011;10507;52.754;13.040;2022-11-20T02:47:34;15.93;;;10.27;;
20695;SDS011;10507;52.754;13.040;2022-11-20T02:50:02;17.03;;;10.60;;
20695;SDS011;10507;52.754;13.040;2022-11-20T02:52:31;18.60;;;10.90;;
20695;SDS011;10507;52.754;13.040;2022-11-20T02:54:59;16.53;;;10.37;;
20695;SDS011;10507;52.754;13.040;2022-11-20T02:57:28;17.67;;;10.37;;
20695;SDS011;10507;52.754;13.040;2022-11-20T02:59:56;19.97;;;10.60;;
20695;SDS011;10507;52.754;13.040;2022-11-20T03:02:24;17.63;;;10.70;;
20695;SDS011;10507;52.754;13.040;2022-11-20T03:04:52;16.57;;;10.10;;
20695;SDS011;10507;52.754;13.040;2022-11-20T03:07:20;17.07;;;9.80;;
20695;SDS011;10507;52.754;13.040;2022-11-20T03:09:48;16.93;;;10.47;;
20695;SDS011;10507;52.754;13.040;2022-11-20T03:12:18;18.47;;;10.57;;
20695;SDS011;10507;52.754;13.040;2022-11-20T03:14:50;17.07;;;10.40;;
20695;SDS011;10507;52.754;13.040;2022-11-20T03:17:18;17.83;;;10.73;;
20695;SDS011;10507;52.754;13.040;2022-11-20T03:19:46;19.90;;;11.17;;
20695;SDS011;10507;52.754;13.040;2022-11-20T03:22:14;19.80;;;11.83;;
20695;SDS011;10507;52.754;13.040;2022-11-20T03:24:42;20.00;;;11.33;;
20695;SDS011;10507;52.754;13.040;2022-11-20T03:27:10;19.10;;;10.80;;
20695;SDS011;10507;52.754;13.040;2022-11-20T03:29:38;16.67;;;10.03;;
20695;SDS011;10507;52.754;13.040;2022-11-20T03:32:07;20.00;;;12.10;;
20695;SDS011;10507;52.754;13.040;2022-11-20T03:34:35;17.10;;;10.70;;
20695;SDS011;10507;52.754;13.040;2022-11-20T03:37:03;20.57;;;11.13;;
20695;SDS011;10507;52.754;13.040;2022-11-20T03:39:31;17.87;;;11.17;;
20695;SDS011;10507;52.754;13.040;2022-11-20T03:41:59;22.40;;;11.30;;
20695;SDS011;10507;52.754;13.040;2022-11-20T03:44:27;17.50;;;10.90;;
20695;SDS011;10507;52.754;13.040;2022-11-20T03:46:55;18.07;;;11.07;;
20695;SDS011;10507;52.754;13.040;2022-11-20T03:49:24;20.63;;;11.10;;
20695;SDS011;10507;52.754;13.040;2022-11-20T03:51:52;17.80;;;10.90;;
20695;SDS011;10507;52.754;13.040;2022-11-20T03:54:20;16.80;;;10.83;;
20695;SDS011;10507;52.754;13.040;2022-11-20T03:56:48;18.37;;;11.53;;
20695;SDS011;10507;52.754;13.040;2022-11-20T03:59:16;21.27;;;11.77;;
20695;SDS011;10507;52.754;13.040;2022-11-20T04:01:44;16.83;;;11.83;;
20695;SDS011;10507;52.754;13.040;2022-11-20T04:04:14;18.63;;;10.77;;
20695;SDS011;10507;52.754;13.040;2022-11-20T04:06:44;19.83;;;11.77;;
20695;SDS011;10507;52.754;13.040;2022-11-20T04:09:12;22.17;;;12.67;;
20695;SDS011;10507;52.754;13.040;2022-11-20T04:11:40;20.20;;;11.80;;
20695;SDS011;10507;52.754;13.040;2022-11-20T04:14:12;20.97;;;11.63;;
20695;SDS011;10507;52.754;13.040;2022-11-20T04:16:41;21.53;;;11.43;;
20695;SDS011;10507;52.754;13.040;2022-11-20T04:19:10;18.60;;;10.90;;
20695;SDS011;10507;52.754;13.040;2022-11-20T04:21:39;20.77;;;11.70;;
20695;SDS011;10507;52.754;13.040;2022-11-20T04:24:09;19.97;;;12.60;;
20695;SDS011;10507;52.754;13.040;2022-11-20T04:26:37;22.07;;;12.20;;
20695;SDS011;10507;52.754;13.040;2022-11-20T04:29:05;20.40;;;12.70;;
20695;SDS011;10507;52.754;13.040;2022-11-20T04:31:34;18.77;;;11.83;;
20695;SDS011;10507;52.754;13.040;2022-11-20T04:34:06;21.77;;;12.57;;
20695;SDS011;10507;52.754;13.040;2022-11-20T04:36:35;19.30;;;11.10;;
20695;SDS011;10507;52.754;13.040;2022-11-20T04:39:03;20.07;;;12.40;;
20695;SDS011;10507;52.754;13.040;2022-11-20T04:41:35;20.33;;;12.20;;
20695;SDS011;10507;52.754;13.040;2022-11-20T04:44:04;22.27;;;13.33;;
20695;SDS011;10507;52.754;13.040;2022-11-20T04:46:34;19.53;;;11.83;;
20695;SDS011;10507;52.754;13.040;2022-11-20T04:49:03;21.17;;;12.57;;
20695;SDS011;10507;52.754;13.040;2022-11-20T04:51:31;19.70;;;11.83;;
20695;SDS011;10507;52.754;13.040;2022-11-20T04:54:00;20.27;;;11.70;;
20695;SDS011;10507;52.754;13.040;2022-11-20T04:56:28;20.70;;;12.00;;
20695;SDS011;10507;52.754;13.040;2022-11-20T04:59:00;20.67;;;11.93;;
20695;SDS011;10507;52.754;13.040;2022-11-20T05:01:29;22.27;;;12.40;;
20695;SDS011;10507;52.754;13.040;2022-11-20T05:03:57;21.07;;;11.23;;
20695;SDS011;10507;52.754;13.040;2022-11-20T05:06:25;23.83;;;12.83;;
20695;SDS011;10507;52.754;13.040;2022-11-20T05:08:53;22.37;;;13.40;;
20695;SDS011;10507;52.754;13.040;2022-11-20T05:11:21;19.50;;;12.73;;
20695;SDS011;10507;52.754;13.040;2022-11-20T05:13:49;21.20;;;12.20;;
20695;SDS011;10507;52.754;13.040;2022-11-20T05:16:20;20.67;;;13.07;;
20695;SDS011;10507;52.754;13.040;2022-11-20T05:18:50;21.80;;;13.43;;
20695;SDS011;10507;52.754;13.040;2022-11-20T05:21:18;20.87;;;12.23;;
20695;SDS011;10507;52.754;13.040;2022-11-20T05:23:47;22.77;;;12.87;;
20695;SDS011;10507;52.754;13.040;2022-11-20T05:26:17;21.23;;;13.63;;
20695;SDS011;10507;52.754;13.040;2022-11-20T05:28:47;21.13;;;12.73;;
20695;SDS011;10507;52.754;13.040;2022-11-20T05:31:15;21.43;;;11.40;;
20695;SDS011;10507;52.754;13.040;2022-11-20T05:33:53;23.87;;;13.33;;
20695;SDS011;10507;52.754;13.040;2022-11-20T05:36:23;22.97;;;13.10;;
20695;SDS011;10507;52.754;13.040;2022-11-20T05:38:51;20.27;;;12.20;;
20695;SDS011;10507;52.754;13.040;2022-11-20T05:41:26;22.13;;;12.80;;
20695;SDS011;10507;52.754;13.040;2022-11-20T05:43:55;20.37;;;12.40;;
20695;SDS011;10507;52.754;13.040;2022-11-20T05:46:23;19.60;;;12.40;;
20695;SDS011;10507;52.754;13.040;2022-11-20T05:48:56;21.53;;;12.13;;
20695;SDS011;10507;52.754;13.040;2022-11-20T05:51:25;24.50;;;13.93;;
20695;SDS011;10507;52.754;13.040;2022-11-20T05:53:54;22.07;;;12.73;;
20695;SDS011;10507;52.754;13.040;2022-11-20T05:56:23;22.00;;;12.43;;
20695;SDS011;10507;52.754;13.040;2022-11-20T05:58:51;20.67;;;13.07;;
20695;SDS011;10507;52.754;13.040;2022-11-20T06:01:20;24.10;;;13.27;;
20695;SDS011;10507;52.754;13.040;2022-11-20T06:03:49;20.60;;;11.87;;
20695;SDS011;10507;52.754;13.040;2022-11-20T06:06:19;25.80;;;13.33;;
20695;SDS011;10507;52.754;13.040;2022-11-20T06:08:47;22.67;;;13.17;;
20695;SDS011;10507;52.754;13.040;2022-11-20T06:11:16;21.80;;;13.40;;
20695;SDS011;10507;52.754;13.040;2022-11-20T06:13:44;22.73;;;13.40;;
20695;SDS011;10507;52.754;13.040;2022-11-20T06:16:13;24.30;;;12.83;;
20695;SDS011;10507;52.754;13.040;2022-11-20T06:18:42;23.10;;;13.47;;
20695;SDS011;10507;52.754;13.040;2022-11-20T06:21:11;23.13;;;13.33;;
20695;SDS011;10507;52.754;13.040;2022-11-20T06:23:41;22.43;;;13.70;;
20695;SDS011;10507;52.754;13.040;2022-11-20T06:26:12;26.67;;;14.20;;
20695;SDS011;10507;52.754;13.040;2022-11-20T06:28:41;22.27;;;13.27;;
20695;SDS011;10507;52.754;13.040;2022-11-20T06:31:10;23.20;;;12.80;;
20695;SDS011;10507;52.754;13.040;2022-11-20T06:33:39;21.27;;;12.43;;
20695;SDS011;10507;52.754;13.040;2022-11-20T06:36:07;24.60;;;13.17;;
20695;SDS011;10507;52.754;13.040;2022-11-20T06:38:37;24.57;;;13.63;;
20695;SDS011;10507;52.754;13.040;2022-11-20T06:41:08;22.63;;;12.77;;
20695;SDS011;10507;52.754;13.040;2022-11-20T06:43:39;22.30;;;12.30;;
20695;SDS011;10507;52.754;13.040;2022-11-20T06:46:08;26.07;;;14.20;;
20695;SDS011;10507;52.754;13.040;2022-11-20T06:48:37;21.77;;;12.10;;
20695;SDS011;10507;52.754;13.040;2022-11-20T06:51:05;20.87;;;13.00;;
20695;SDS011;10507;52.754;13.040;2022-11-20T06:53:35;22.87;;;13.20;;
20695;SDS011;10507;52.754;13.040;2022-11-20T06:56:04;23.80;;;12.50;;
20695;SDS011;10507;52.754;13.040;2022-11-20T06:58:34;23.73;;;13.13;;
20695;SDS011;10507;52.754;13.040;2022-11-20T07:01:03;21.93;;;12.67;;
20695;SDS011;10507;52.754;13.040;2022-11-20T07:03:32;21.33;;;12.67;;
20695;SDS011;10507;52.754;13.040;2022-11-20T07:06:00;20.43;;;12.20;;
20695;SDS011;10507;52.754;13.040;2022-11-20T07:08:29;19.20;;;11.83;;
20695;SDS011;10507;52.754;13.040;2022-11-20T07:10:58;20.57;;;11.53;;
20695;SDS011;10507;52.754;13.040;2022-11-20T07:13:26;22.30;;;12.70;;
20695;SDS011;10507;52.754;13.040;2022-11-20T07:15:58;21.93;;;12.27;;
20695;SDS011;10507;52.754;13.040;2022-11-20T07:18:27;21.33;;;12.07;;
20695;SDS011;10507;52.754;13.040;2022-11-20T07:20:55;19.37;;;12.03;;
20695;SDS011;10507;52.754;13.040;2022-11-20T07:23:23;22.10;;;12.13;;
20695;SDS011;10507;52.754;13.040;2022-11-20T07:25:50;18.90;;;12.93;;
20695;SDS011;10507;52.754;13.040;2022-11-20T07:28:18;23.30;;;12.07;;
20695;SDS011;10507;52.754;13.040;2022-11-20T07:30:49;20.17;;;12.23;;
20695;SDS011;10507;52.754;13.040;2022-11-20T07:33:19;22.03;;;12.60;;
20695;SDS011;10507;52.754;13.040;2022-11-20T07:35:47;24.07;;;12.57;;
20695;SDS011;10507;52.754;13.040;2022-11-20T07:38:15;19.00;;;11.83;;
20695;SDS011;10507;52.754;13.040;2022-11-20T07:40:43;19.67;;;13.00;;
20695;SDS011;10507;52.754;13.040;2022-11-20T07:43:11;20.53;;;11.90;;
20695;SDS011;10507;52.754;13.040;2022-11-20T07:45:38;21.10;;;13.00;;
20695;SDS011;10507;52.754;13.040;2022-11-20T07:48:06;21.17;;;12.90;;
20695;SDS011;10507;52.754;13.040;2022-11-20T07:50:36;22.30;;;12.17;;
20695;SDS011;10507;52.754;13.040;2022-11-20T07:53:04;19.00;;;11.73;;
20695;SDS011;10507;52.754;13.040;2022-11-20T07:55:32;19.00;;;11.90;;
20695;SDS011;10507;52.754;13.040;2022-11-20T07:58:00;20.67;;;12.13;;
20695;SDS011;10507;52.754;13.040;2022-11-20T08:00:28;20.83;;;12.63;;
20695;SDS011;10507;52.754;13.040;2022-11-20T08:02:56;22.67;;;12.10;;
20695;SDS011;10507;52.754;13.040;2022-11-20T08:05:24;24.50;;;13.73;;
20695;SDS011;10507;52.754;13.040;2022-11-20T08:07:53;19.93;;;11.93;;
20695;SDS011;10507;52.754;13.040;2022-11-20T08:10:21;21.03;;;12.13;;
20695;SDS011;10507;52.754;13.040;2022-11-20T08:12:50;19.33;;;11.53;;
20695;SDS011;10507;52.754;13.040;2022-11-20T08:15:36;20.23;;;12.30;;
20695;SDS011;10507;52.754;13.040;2022-11-20T08:18:06;20.80;;;12.03;;
20695;SDS011;10507;52.754;13.040;2022-11-20T08:20:55;19.37;;;11.80;;
20695;SDS011;10507;52.754;13.040;2022-11-20T08:23:24;21.70;;;11.90;;
20695;SDS011;10507;52.754;13.040;2022-11-20T08:25:52;19.90;;;11.27;;
20695;SDS011;10507;52.754;13.040;2022-11-20T08:28:20;23.17;;;12.47;;
20695;SDS011;10507;52.754;13.040;2022-11-20T08:30:48;19.77;;;11.73;;
20695;SDS011;10507;52.754;13.040;2022-11-20T08:33:17;20.07;;;11.83;;
20695;SDS011;10507;52.754;13.040;2022-11-20T08:35:45;18.00;;;11.27;;
20695;SDS011;10507;52.754;13.040;2022-11-20T08:38:13;17.07;;;11.27;;
20695;SDS011;10507;52.754;13.040;2022-11-20T08:40:42;19.30;;;11.37;;
20695;SDS011;10507;52.754;13.040;2022-11-20T08:43:31;23.83;;;12.37;;
20695;SDS011;10507;52.754;13.040;2022-11-20T08:45:59;21.00;;;11.00;;
20695;SDS011;10507;52.754;13.040;2022-11-20T08:48:27;22.43;;;11.77;;
20695;SDS011;10507;52.754;13.040;2022-11-20T08:50:57;18.77;;;11.17;;
20695;SDS011;10507;52.754;13.040;2022-11-20T08:53:25;20.27;;;11.10;;
20695;SDS011;10507;52.754;13.040;2022-11-20T08:55:56;19.77;;;11.37;;
20695;SDS011;10507;52.754;13.040;2022-11-20T08:58:24;20.13;;;11.40;;
20695;SDS011;10507;52.754;13.040;2022-11-20T09:00:52;19.47;;;11.17;;
20695;SDS011;10507;52.754;13.040;2022-11-20T09:03:20;17.50;;;10.90;;
20695;SDS011;10507;52.754;13.040;2022-11-20T09:05:49;19.73;;;11.30;;
20695;SDS011;10507;52.754;13.040;2022-11-20T09:08:17;19.43;;;11.77;;
20695;SDS011;10507;52.754;13.040;2022-11-20T09:10:45;18.30;;;11.80;;
20695;SDS011;10507;52.754;13.040;2022-11-20T09:13:14;20.47;;;12.00;;
20695;SDS011;10507;52.754;13.040;2022-11-20T09:15:41;17.40;;;10.93;;
20695;SDS011;10507;52.754;13.040;2022-11-20T09:18:09;17.53;;;10.83;;
20695;SDS011;10507;52.754;13.040;2022-11-20T09:20:37;18.53;;;10.63;;
20695;SDS011;10507;52.754;13.040;2022-11-20T09:23:05;21.00;;;11.13;;
20695;SDS011;10507;52.754;13.040;2022-11-20T09:25:33;17.17;;;9.43;;
20695;SDS011;10507;52.754;13.040;2022-11-20T09:28:00;19.27;;;11.53;;
20695;SDS011;10507;52.754;13.040;2022-11-20T09:30:30;18.57;;;11.67;;
20695;SDS011;10507;52.754;13.040;2022-11-20T09:32:58;21.17;;;11.57;;
20695;SDS011;10507;52.754;13.040;2022-11-20T09:35:25;19.43;;;11.23;;
20695;SDS011;10507;52.754;13.040;2022-11-20T09:37:53;18.73;;;11.03;;
20695;SDS011;10507;52.754;13.040;2022-11-20T09:40:22;18.47;;;11.20;;
20695;SDS011;10507;52.754;13.040;2022-11-20T09:42:54;19.03;;;11.70;;
20695;SDS011;10507;52.754;13.040;2022-11-20T09:45:33;19.63;;;11.60;;
20695;SDS011;10507;52.754;13.040;2022-11-20T09:48:16;18.63;;;11.40;;
20695;SDS011;10507;52.754;13.040;2022-11-20T09:50:52;18.17;;;11.10;;
20695;SDS011;10507;52.754;13.040;2022-11-20T09:53:29;17.87;;;11.13;;
20695;SDS011;10507;52.754;13.040;2022-11-20T09:56:03;17.83;;;11.33;;
20695;SDS011;10507;52.754;13.040;2022-11-20T09:58:32;20.23;;;11.03;;
20695;SDS011;10507;52.754;13.040;2022-11-20T10:01:05;18.17;;;11.00;;
20695;SDS011;10507;52.754;13.040;2022-11-20T10:03:41;19.97;;;11.37;;
20695;SDS011;10507;52.754;13.040;2022-11-20T10:06:17;17.67;;;10.83;;
20695;SDS011;10507;52.754;13.040;2022-11-20T10:08:51;20.07;;;12.03;;
20695;SDS011;10507;52.754;13.040;2022-11-20T10:11:29;18.47;;;11.30;;
20695;SDS011;10507;52.754;13.040;2022-11-20T10:14:10;17.97;;;10.80;;
20695;SDS011;10507;52.754;13.040;2022-11-20T10:16:55;17.50;;;10.60;;
20695;SDS011;10507;52.754;13.040;2022-11-20T10:19:34;22.23;;;11.67;;
20695;SDS011;10507;52.754;13.040;2022-11-20T10:22:14;16.53;;;10.30;;
20695;SDS011;10507;52.754;13.040;2022-11-20T10:24:56;17.77;;;11.07;;
20695;SDS011;10507;52.754;13.040;2022-11-20T10:27:35;21.00;;;11.37;;
20695;SDS011;10507;52.754;13.040;2022-11-20T10:30:12;19.00;;;11.47;;
20695;SDS011;10507;52.754;13.040;2022-11-20T10:32:44;18.07;;;11.33;;
20695;SDS011;10507;52.754;13.040;2022-11-20T10:35:18;22.77;;;11.93;;
20695;SDS011;10507;52.754;13.040;2022-11-20T10:37:51;19.23;;;11.87;;
20695;SDS011;10507;52.754;13.040;2022-11-20T10:40:24;18.67;;;11.47;;
20695;SDS011;10507;52.754;13.040;2022-11-20T10:42:59;17.97;;;11.80;;
20695;SDS011;10507;52.754;13.040;2022-11-20T10:45:32;18.43;;;10.97;;
20695;SDS011;10507;52.754;13.040;2022-11-20T10:48:12;23.23;;;12.70;;
20695;SDS011;10507;52.754;13.040;2022-11-20T10:50:47;43.17;;;7.10;;
20695;SDS011;10507;52.754;13.040;2022-11-20T10:53:40;22.67;;;10.47;;
20695;SDS011;10507;52.754;13.040;2022-11-20T10:56:18;21.13;;;12.33;;
20695;SDS011;10507;52.754;13.040;2022-11-20T10:58:51;15.00;;;9.23;;
20695;SDS011;10507;52.754;13.040;2022-11-20T11:01:29;12.93;;;8.40;;
20695;SDS011;10507;52.754;13.040;2022-11-20T11:03:59;15.67;;;9.70;;
20695;SDS011;10507;52.754;13.040;2022-11-20T11:06:29;12.83;;;8.47;;
20695;SDS011;10507;52.754;13.040;2022-11-20T11:09:04;14.63;;;7.83;;
20695;SDS011;10507;52.754;13.040;2022-11-20T11:11:40;13.87;;;8.70;;
20695;SDS011;10507;52.754;13.040;2022-11-20T11:14:09;13.93;;;8.50;;
20695;SDS011;10507;52.754;13.040;2022-11-20T11:16:44;14.30;;;9.17;;
20695;SDS011;10507;52.754;13.040;2022-11-20T11:19:18;15.10;;;9.40;;
20695;SDS011;10507;52.754;13.040;2022-11-20T11:21:46;13.50;;;8.67;;
20695;SDS011;10507;52.754;13.040;2022-11-20T11:24:21;14.43;;;9.43;;
20695;SDS011;10507;52.754;13.040;2022-11-20T11:27:10;17.87;;;9.90;;
20695;SDS011;10507;52.754;13.040;2022-11-20T11:29:43;14.97;;;9.00;;
20695;SDS011;10507;52.754;13.040;2022-11-20T11:32:14;16.57;;;9.93;;
20695;SDS011;10507;52.754;13.040;2022-11-20T11:34:57;15.43;;;9.50;;
20695;SDS011;10507;52.754;13.040;2022-11-20T11:37:26;16.50;;;9.83;;
20695;SDS011;10507;52.754;13.040;2022-11-20T11:39:59;16.37;;;9.33;;
20695;SDS011;10507;52.754;13.040;2022-11-20T11:42:50;17.73;;;10.03;;
20695;SDS011;10507;52.754;13.040;2022-11-20T11:45:22;18.73;;;9.83;;
20695;SDS011;10507;52.754;13.040;2022-11-20T11:47:50;17.67;;;10.07;;
20695;SDS011;10507;52.754;13.040;2022-11-20T11:50:21;18.20;;;10.20;;
20695;SDS011;10507;52.754;13.040;2022-11-20T11:52:56;16.47;;;10.00;;
20695;SDS011;10507;52.754;13.040;2022-11-20T11:55:33;15.57;;;9.80;;
20695;SDS011;10507;52.754;13.040;2022-11-20T11:58:09;15.53;;;9.03;;
20695;SDS011;10507;52.754;13.040;2022-11-20T12:00:45;16.57;;;9.87;;
20695;SDS011;10507;52.754;13.040;2022-11-20T12:03:22;18.73;;;10.17;;
20695;SDS011;10507;52.754;13.040;2022-11-20T12:05:57;15.40;;;9.43;;
20695;SDS011;10507;52.754;13.040;2022-11-20T12:08:27;17.23;;;10.83;;
20695;SDS011;10507;52.754;13.040;2022-11-20T12:11:00;15.57;;;10.13;;
20695;SDS011;10507;52.754;13.040;2022-11-20T12:13:44;20.17;;;10.33;;
20695;SDS011;10507;52.754;13.040;2022-11-20T12:16:16;16.20;;;9.93;;
20695;SDS011;10507;52.754;13.040;2022-11-20T12:18:48;18.67;;;10.37;;
20695;SDS011;10507;52.754;13.040;2022-11-20T12:21:19;17.83;;;9.87;;
20695;SDS011;10507;52.754;13.040;2022-11-20T12:23:59;16.37;;;9.57;;
20695;SDS011;10507;52.754;13.040;2022-11-20T12:26:41;19.50;;;10.23;;
20695;SDS011;10507;52.754;13.040;2022-11-20T12:29:27;17.53;;;10.20;;
20695;SDS011;10507;52.754;13.040;2022-11-20T12:32:30;16.97;;;9.63;;
20695;SDS011;10507;52.754;13.040;2022-11-20T12:35:27;17.13;;;10.20;;
20695;SDS011;10507;52.754;13.040;2022-11-20T12:38:12;16.03;;;10.70;;
20695;SDS011;10507;52.754;13.040;2022-11-20T12:41:00;19.00;;;10.30;;
20695;SDS011;10507;52.754;13.040;2022-11-20T12:43:37;16.33;;;10.37;;
20695;SDS011;10507;52.754;13.040;2022-11-20T12:46:31;17.33;;;10.40;;
20695;SDS011;10507;52.754;13.040;2022-11-20T12:49:19;18.17;;;10.43;;
20695;SDS011;10507;52.754;13.040;2022-11-20T12:52:12;15.63;;;10.07;;
20695;SDS011;10507;52.754;13.040;2022-11-20T12:54:58;16.77;;;9.60;;
20695;SDS011;10507;52.754;13.040;2022-11-20T12:57:40;16.60;;;10.27;;
20695;SDS011;10507;52.754;13.040;2022-11-20T13:00:16;19.93;;;10.60;;
20695;SDS011;10507;52.754;13.040;2022-11-20T13:06:03;15.57;;;9.83;;
20695;SDS011;10507;52.754;13.040;2022-11-20T13:08:39;20.70;;;11.10;;
20695;SDS011;10507;52.754;13.040;2022-11-20T13:11:12;18.83;;;10.43;;
20695;SDS011;10507;52.754;13.040;2022-11-20T13:13:51;15.97;;;9.90;;
20695;SDS011;10507;52.754;13.040;2022-11-20T13:16:33;16.10;;;10.10;;
20695;SDS011;10507;52.754;13.040;2022-11-20T13:19:04;16.67;;;10.07;;
20695;SDS011;10507;52.754;13.040;2022-11-20T13:21:38;17.57;;;10.53;;
20695;SDS011;10507;52.754;13.040;2022-11-20T13:24:07;18.47;;;10.50;;
20695;SDS011;10507;52.754;13.040;2022-11-20T13:27:00;17.80;;;10.13;;
20695;SDS011;10507;52.754;13.040;2022-11-20T13:29:46;16.97;;;11.00;;
20695;SDS011;10507;52.754;13.040;2022-11-20T13:32:25;18.47;;;11.23;;
20695;SDS011;10507;52.754;13.040;2022-11-20T13:34:58;18.57;;;10.80;;
20695;SDS011;10507;52.754;13.040;2022-11-20T13:37:29;19.00;;;10.93;;
20695;SDS011;10507;52.754;13.040;2022-11-20T13:40:05;18.40;;;10.63;;
20695;SDS011;10507;52.754;13.040;2022-11-20T13:42:43;18.63;;;11.10;;
20695;SDS011;10507;52.754;13.040;2022-11-20T13:45:21;20.90;;;11.37;;
20695;SDS011;10507;52.754;13.040;2022-11-20T13:47:50;16.77;;;10.60;;
20695;SDS011;10507;52.754;13.040;2022-11-20T13:50:19;15.67;;;9.93;;
20695;SDS011;10507;52.754;13.040;2022-11-20T13:52:58;18.43;;;11.10;;
20695;SDS011;10507;52.754;13.040;2022-11-20T13:55:36;19.73;;;11.73;;
20695;SDS011;10507;52.754;13.040;2022-11-20T13:58:19;19.33;;;11.23;;
20695;SDS011;10507;52.754;13.040;2022-11-20T14:01:08;21.97;;;12.07;;
20695;SDS011;10507;52.754;13.040;2022-11-20T14:03:38;19.40;;;11.50;;
20695;SDS011;10507;52.754;13.040;2022-11-20T14:06:28;19.97;;;10.37;;
20695;SDS011;10507;52.754;13.040;2022-11-20T14:08:58;18.80;;;10.93;;
20695;SDS011;10507;52.754;13.040;2022-11-20T14:11:27;22.03;;;11.53;;
20695;SDS011;10507;52.754;13.040;2022-11-20T14:13:59;18.87;;;10.57;;
20695;SDS011;10507;52.754;13.040;2022-11-20T14:16:30;18.37;;;10.33;;
20695;SDS011;10507;52.754;13.040;2022-11-20T14:19:19;17.93;;;11.17;;
20695;SDS011;10507;52.754;13.040;2022-11-20T14:21:53;19.00;;;11.17;;
20695;SDS011;10507;52.754;13.040;2022-11-20T14:24:33;21.80;;;11.53;;
20695;SDS011;10507;52.754;13.040;2022-11-20T14:27:01;17.87;;;10.97;;
20695;SDS011;10507;52.754;13.040;2022-11-20T14:29:38;21.30;;;10.90;;
20695;SDS011;10507;52.754;13.040;2022-11-20T14:32:10;17.37;;;10.40;;
20695;SDS011;10507;52.754;13.040;2022-11-20T14:34:41;19.67;;;11.30;;
20695;SDS011;10507;52.754;13.040;2022-11-20T14:37:19;18.10;;;11.33;;
20695;SDS011;10507;52.754;13.040;2022-11-20T14:39:49;17.93;;;10.57;;
20695;SDS011;10507;52.754;13.040;2022-11-20T14:42:19;17.00;;;11.03;;